Time;durP1;ratioP1;P1;durP2;ratioP2;P2;SDS_P1;SDS_P2;PMS_P1;PMS_P2;Temp;Humidity;BMP_temperature;BMP_pressure;BME280_temperature;BME280_humidity;BME280_pressure;Samples;Min_cycle;Max_cycle;Signal;HPM_P1;HPM_P2
2021/07/16 00:01:55;;;;;;;8.52;3.70;;;16.10;99.90;;;;;;4961542;28;20455;-80
2021/07/16 00:04:21;;;;;;;14.20;4.35;;;15.20;99.90;;;;;;4978645;28;20023;-80
2021/07/16 00:06:48;;;;;;;9.25;3.63;;;16.40;99.90;;;;;;4978793;28;20023;-81
2021/07/16 00:09:13;;;;;;;8.68;3.90;;;15.40;99.90;;;;;;4960537;28;20500;-80
2021/07/16 00:11:39;;;;;;;9.93;3.40;;;15.60;99.90;;;;;;4961235;28;20046;-80
2021/07/16 00:14:05;;;;;;;5.15;3.50;;;16.70;99.90;;;;;;4961778;28;20087;-79
2021/07/16 00:16:32;;;;;;;5.93;3.30;;;15.40;99.90;;;;;;4978680;28;20054;-79
2021/07/16 00:18:58;;;;;;;4.95;2.80;;;15.60;99.90;;;;;;4968788;28;20066;-80
2021/07/16 00:21:24;;;;;;;3.47;2.80;;;15.60;99.90;;;;;;4960328;28;20031;-81
2021/07/16 00:23:50;;;;;;;8.20;3.05;;;15.00;99.90;;;;;;4942329;29;20162;-81
2021/07/16 00:26:16;;;;;;;7.15;2.85;;;15.20;99.90;;;;;;4960112;29;20086;-81
2021/07/16 00:28:44;;;;;;;11.38;3.50;;;15.20;99.90;;;;;;4958934;29;20169;-80
2021/07/16 00:31:11;;;;;;;12.80;3.70;;;16.60;99.90;;;;;;4942325;28;20023;-80
2021/07/16 00:33:37;;;;;;;8.32;3.53;;;14.90;99.90;;;;;;4978694;28;20026;-81
2021/07/16 00:36:03;;;;;;;9.10;3.75;;;14.90;99.90;;;;;;4978198;28;20034;-81
2021/07/16 00:38:28;;;;;;;9.75;4.47;;;14.80;99.90;;;;;;4978591;28;20039;-80
2021/07/16 00:40:54;;;;;;;13.02;4.55;;;15.10;99.90;;;;;;4960954;28;20049;-80
2021/07/16 00:43:20;;;;;;;20.10;4.50;;;15.00;99.90;;;;;;4977270;28;20027;-80
2021/07/16 00:45:46;;;;;;;8.15;4.18;;;16.40;99.90;;;;;;4977102;28;20086;-80
2021/07/16 00:48:11;;;;;;;11.95;4.53;;;16.10;99.90;;;;;;4982045;28;20039;-80
2021/07/16 00:50:39;;;;;;;13.93;4.88;;;15.00;99.90;;;;;;4981761;28;20081;-81
2021/07/16 00:53:06;;;;;;;9.43;4.53;;;16.10;99.90;;;;;;4983458;28;20030;-80
2021/07/16 00:55:32;;;;;;;12.07;4.82;;;15.10;99.90;;;;;;4979825;28;20051;-81
2021/07/16 00:57:58;;;;;;;9.18;4.93;;;17.00;99.90;;;;;;4961901;29;20054;-80
2021/07/16 01:00:25;;;;;;;11.15;5.15;;;15.10;99.90;;;;;;4961838;28;20431;-80
2021/07/16 01:02:51;;;;;;;10.20;5.63;;;15.10;99.90;;;;;;4962538;29;20131;-80
2021/07/16 01:05:18;;;;;;;16.38;4.88;;;17.00;99.90;;;;;;4962016;28;20051;-80
2021/07/16 01:07:46;;;;;;;8.80;5.20;;;15.30;99.90;;;;;;4966323;28;20035;-81
2021/07/16 01:10:12;;;;;;;11.00;5.20;;;14.10;99.90;;;;;;4980385;28;20019;-80
2021/07/16 01:12:40;;;;;;;7.70;4.78;;;15.30;99.90;;;;;;4963763;28;20494;-80
2021/07/16 01:15:08;;;;;;;11.05;5.18;;;15.50;99.90;;;;;;4981685;28;20030;-81
2021/07/16 01:17:34;;;;;;;9.38;5.47;;;15.10;99.90;;;;;;4964151;28;20027;-80
2021/07/16 01:20:09;;;;;;;8.75;5.20;;;15.30;99.90;;;;;;4973800;28;20023;-81
2021/07/16 01:22:37;;;;;;;7.82;5.03;;;15.30;99.90;;;;;;4962270;28;20154;-80
2021/07/16 01:25:09;;;;;;;6.88;4.63;;;15.40;99.90;;;;;;4962565;29;20504;-79
2021/07/16 01:27:35;;;;;;;8.97;4.70;;;15.30;99.90;;;;;;4944460;29;20050;-81
2021/07/16 01:30:05;;;;;;;18.08;4.88;;;15.80;99.90;;;;;;4961899;29;20051;-81
2021/07/16 01:32:31;;;;;;;8.50;4.68;;;15.30;99.90;;;;;;4972979;28;20037;-81
2021/07/16 01:34:56;;;;;;;9.32;4.93;;;16.60;99.90;;;;;;4964076;28;20451;-81
2021/07/16 01:37:22;;;;;;;9.27;4.95;;;16.10;99.90;;;;;;4964039;28;20030;-81
2021/07/16 01:39:48;;;;;;;7.75;4.47;;;15.40;99.90;;;;;;4980876;28;20034;-80
2021/07/16 01:42:13;;;;;;;11.05;4.43;;;15.50;99.90;;;;;;4979676;28;20086;-80
2021/07/16 01:44:41;;;;;;;7.45;3.63;;;15.40;99.90;;;;;;4978867;28;20108;-81
2021/07/16 01:47:08;;;;;;;8.65;3.70;;;15.50;99.90;;;;;;4981381;28;20114;-81
2021/07/16 01:49:34;;;;;;;11.63;3.60;;;15.40;99.90;;;;;;4976422;28;20027;-79
2021/07/16 01:51:59;;;;;;;5.18;3.58;;;15.90;99.90;;;;;;4957697;28;20046;-79
2021/07/16 01:54:25;;;;;;;4.53;3.35;;;15.20;99.90;;;;;;4957702;28;20035;-79
2021/07/16 01:56:51;;;;;;;5.22;3.10;;;15.40;99.90;;;;;;4974416;28;20053;-79
2021/07/16 01:59:17;;;;;;;4.25;3.28;;;17.20;99.90;;;;;;4974916;28;20458;-78
2021/07/16 02:01:43;;;;;;;6.25;3.33;;;15.10;99.90;;;;;;4974856;28;20102;-78
2021/07/16 02:04:10;;;;;;;5.82;3.08;;;15.40;99.90;;;;;;4974710;28;20110;-78
2021/07/16 02:06:37;;;;;;;10.35;3.83;;;16.50;99.90;;;;;;4974678;28;20023;-78
2021/07/16 02:09:08;;;;;;;13.27;3.25;;;15.10;99.90;;;;;;4974388;28;20027;-79
2021/07/16 02:11:34;;;;;;;15.43;3.42;;;15.00;99.90;;;;;;4974555;28;20111;-78
2021/07/16 02:14:00;;;;;;;10.73;3.25;;;15.00;99.90;;;;;;4974601;28;20046;-78
2021/07/16 02:16:27;;;;;;;9.45;3.55;;;15.20;99.90;;;;;;4974553;28;20026;-78
2021/07/16 02:18:54;;;;;;;11.95;3.45;;;15.10;99.90;;;;;;4974489;28;20091;-78
2021/07/16 02:21:20;;;;;;;6.38;3.10;;;15.30;99.90;;;;;;4957231;28;20030;-78
2021/07/16 02:23:47;;;;;;;5.47;3.35;;;15.20;99.90;;;;;;4975666;28;20384;-77
2021/07/16 02:26:12;;;;;;;9.18;3.60;;;15.50;99.90;;;;;;4985281;28;20031;-77
2021/07/16 02:28:38;;;;;;;9.32;4.03;;;15.90;99.90;;;;;;4981681;28;20046;-78
2021/07/16 02:31:06;;;;;;;10.25;3.33;;;15.80;99.90;;;;;;4986290;28;20030;-78
2021/07/16 02:33:32;;;;;;;12.45;3.95;;;15.70;99.90;;;;;;4986669;28;20033;-77
2021/07/16 02:35:58;;;;;;;10.90;3.40;;;15.40;99.90;;;;;;4970888;28;20033;-77
2021/07/16 02:38:24;;;;;;;10.85;3.67;;;15.60;99.90;;;;;;4974256;28;20502;-78
2021/07/16 02:40:51;;;;;;;10.45;3.63;;;16.50;99.90;;;;;;4973998;28;20027;-78
2021/07/16 02:43:17;;;;;;;12.38;4.00;;;14.90;99.90;;;;;;4974321;28;20034;-78
2021/07/16 02:45:43;;;;;;;12.68;4.22;;;14.90;99.90;;;;;;4956600;28;20069;-78
2021/07/16 02:48:09;;;;;;;15.77;4.00;;;14.90;99.90;;;;;;4974058;28;20058;-78
2021/07/16 02:50:38;;;;;;;10.05;4.28;;;15.10;99.90;;;;;;4973876;28;20086;-78
2021/07/16 02:53:09;;;;;;;7.85;4.03;;;14.70;99.90;;;;;;4972835;28;20158;-78
2021/07/16 02:55:35;;;;;;;6.72;3.55;;;14.90;99.90;;;;;;4973940;28;20073;-78
2021/07/16 02:58:01;;;;;;;7.80;3.15;;;16.00;99.90;;;;;;4973726;28;20476;-78
2021/07/16 03:00:29;;;;;;;11.18;3.40;;;14.60;99.90;;;;;;4956138;28;20037;-77
2021/07/16 03:02:56;;;;;;;6.22;3.17;;;15.20;99.90;;;;;;4956441;28;20518;-77
2021/07/16 03:05:29;;;;;;;6.80;4.15;;;14.60;99.90;;;;;;4973791;28;20385;-77
2021/07/16 03:07:56;;;;;;;6.00;4.30;;;15.40;99.90;;;;;;4973320;28;20109;-78
2021/07/16 03:10:31;;;;;;;6.90;3.28;;;14.20;99.90;;;;;;4973181;28;20023;-78
2021/07/16 03:12:58;;;;;;;7.07;4.15;;;14.30;99.90;;;;;;4973361;28;20033;-78
2021/07/16 03:15:26;;;;;;;8.30;3.95;;;14.40;99.90;;;;;;4973401;28;20026;-78
2021/07/16 03:17:51;;;;;;;13.23;4.82;;;14.40;99.90;;;;;;4973479;28;20113;-77
2021/07/16 03:20:23;;;;;;;7.70;3.95;;;14.50;99.90;;;;;;4972811;28;20483;-77
2021/07/16 03:22:49;;;;;;;8.33;4.37;;;14.50;99.90;;;;;;4973187;28;20038;-78
2021/07/16 03:25:17;;;;;;;10.50;4.82;;;14.50;99.90;;;;;;4973339;28;20027;-78
2021/07/16 03:27:44;;;;;;;8.80;4.85;;;14.30;99.90;;;;;;4955859;28;20440;-78
2021/07/16 03:30:12;;;;;;;9.27;5.78;;;14.40;99.90;;;;;;4971764;28;20506;-78
2021/07/16 03:32:38;;;;;;;10.57;5.93;;;14.20;99.90;;;;;;4973235;28;20101;-78
2021/07/16 03:35:06;;;;;;;14.65;7.40;;;14.30;99.90;;;;;;4973426;28;20439;-78
2021/07/16 03:37:32;;;;;;;16.95;7.57;;;14.30;99.90;;;;;;4945970;29;20488;-78
2021/07/16 03:39:58;;;;;;;23.92;7.88;;;14.60;99.90;;;;;;4953714;29;20110;-78
2021/07/16 03:42:24;;;;;;;13.52;7.88;;;14.80;99.90;;;;;;4936562;29;20373;-78
2021/07/16 03:44:50;;;;;;;17.02;8.68;;;14.90;99.90;;;;;;4962495;28;20037;-78
2021/07/16 03:47:16;;;;;;;15.73;8.20;;;14.80;99.90;;;;;;4973019;28;20492;-78
2021/07/16 03:49:43;;;;;;;12.57;8.25;;;15.20;99.90;;;;;;4972867;28;20054;-78
2021/07/16 03:52:09;;;;;;;15.05;7.78;;;15.60;99.90;;;;;;4971557;28;20475;-78
2021/07/16 03:54:36;;;;;;;22.48;8.20;;;15.10;99.90;;;;;;4973020;28;20488;-78
2021/07/16 03:57:03;;;;;;;11.77;6.57;;;16.50;99.90;;;;;;4955471;28;20027;-78
2021/07/16 03:59:29;;;;;;;10.32;5.72;;;15.30;99.90;;;;;;4955195;28;20019;-78
2021/07/16 04:01:54;;;;;;;11.82;5.25;;;15.20;99.90;;;;;;4972839;28;20027;-78
2021/07/16 04:04:20;;;;;;;10.02;4.75;;;15.40;99.90;;;;;;4972911;28;20027;-78
2021/07/16 04:06:56;;;;;;;9.40;4.90;;;16.40;99.90;;;;;;4972935;28;20034;-78
2021/07/16 04:09:26;;;;;;;8.13;4.90;;;15.40;99.90;;;;;;4955217;28;20038;-78
2021/07/16 04:12:12;;;;;;;12.23;5.28;;;15.30;99.90;;;;;;4972781;28;20031;-78
2021/07/16 04:14:44;;;;;;;9.60;4.88;;;15.30;99.90;;;;;;4971559;28;20166;-78
2021/07/16 04:17:15;;;;;;;8.02;5.60;;;15.40;99.90;;;;;;4972807;28;20081;-78
2021/07/16 04:19:43;;;;;;;9.73;4.72;;;15.40;99.90;;;;;;4973721;28;20058;-78
2021/07/16 04:22:09;;;;;;;9.70;5.90;;;15.70;99.90;;;;;;4976516;28;20027;-78
2021/07/16 04:24:36;;;;;;;16.00;7.70;;;15.50;99.90;;;;;;4976582;28;20022;-78
2021/07/16 04:27:03;;;;;;;13.77;7.78;;;15.80;99.90;;;;;;4976420;28;20030;-78
2021/07/16 04:29:29;;;;;;;12.95;7.30;;;15.60;99.90;;;;;;4958897;28;20357;-78
2021/07/16 04:31:56;;;;;;;13.10;7.55;;;17.00;99.90;;;;;;4972322;28;20030;-78
2021/07/16 04:34:22;;;;;;;15.68;8.27;;;15.80;99.90;;;;;;4957136;29;20456;-78
2021/07/16 04:36:48;;;;;;;17.60;9.55;;;17.20;99.90;;;;;;4957132;29;20031;-78
2021/07/16 04:39:13;;;;;;;14.18;8.93;;;16.00;99.90;;;;;;4964147;28;20042;-78
2021/07/16 04:41:39;;;;;;;14.73;8.40;;;15.90;99.90;;;;;;4961872;28;20023;-78
2021/07/16 04:44:05;;;;;;;16.30;8.35;;;16.30;99.90;;;;;;4969165;28;20028;-78
2021/07/16 04:46:31;;;;;;;17.77;8.50;;;16.20;99.90;;;;;;4939707;29;20063;-78
2021/07/16 04:48:56;;;;;;;23.80;11.52;;;16.40;99.90;;;;;;4956480;29;20110;-78
2021/07/16 04:51:26;;;;;;;22.95;10.35;;;16.50;99.90;;;;;;4956653;28;20039;-79
2021/07/16 04:53:56;;;;;;;20.95;10.70;;;16.50;99.90;;;;;;4956739;29;20034;-79
2021/07/16 04:56:23;;;;;;;16.80;9.50;;;16.60;99.90;;;;;;4959578;29;20027;-80
2021/07/16 04:58:49;;;;;;;20.50;10.57;;;16.60;99.90;;;;;;4969408;29;20038;-79
2021/07/16 05:01:15;;;;;;;17.95;10.75;;;16.50;99.90;;;;;;4966437;28;20028;-79
2021/07/16 05:03:41;;;;;;;19.02;10.27;;;17.50;99.90;;;;;;4939332;29;20054;-78
2021/07/16 05:06:07;;;;;;;17.38;9.93;;;16.90;99.90;;;;;;4923613;29;20687;-78
2021/07/16 05:08:33;;;;;;;15.52;9.35;;;16.60;99.90;;;;;;4969074;28;20035;-78
2021/07/16 05:10:58;;;;;;;15.18;8.98;;;16.80;99.90;;;;;;4975088;28;20480;-78
2021/07/16 05:13:26;;;;;;;11.38;7.65;;;16.80;99.90;;;;;;4975496;28;20035;-79
2021/07/16 05:15:51;;;;;;;18.15;9.05;;;16.80;99.90;;;;;;4975430;28;20050;-79
2021/07/16 05:18:17;;;;;;;19.13;9.35;;;16.90;99.90;;;;;;4975668;28;20102;-79
2021/07/16 05:20:44;;;;;;;12.48;8.15;;;16.90;99.90;;;;;;4959450;28;20031;-78
2021/07/16 05:23:10;;;;;;;15.43;8.23;;;16.70;99.90;;;;;;4957253;29;20030;-79
2021/07/16 05:25:36;;;;;;;16.05;8.77;;;16.80;99.90;;;;;;4956108;29;20492;-79
2021/07/16 05:28:02;;;;;;;11.27;7.47;;;17.30;99.90;;;;;;4959926;28;20042;-79
2021/07/16 05:30:29;;;;;;;13.70;8.30;;;17.00;99.90;;;;;;4957422;28;20023;-79
2021/07/16 05:32:54;;;;;;;16.00;9.18;;;17.40;99.90;;;;;;4968333;28;20562;-79
2021/07/16 05:35:21;;;;;;;13.90;8.68;;;17.10;99.90;;;;;;4969977;28;20035;-78
2021/07/16 05:37:47;;;;;;;13.15;9.07;;;16.90;99.90;;;;;;4971040;28;20074;-78
2021/07/16 05:40:14;;;;;;;15.43;9.10;;;17.00;99.90;;;;;;4971429;28;20034;-78
2021/07/16 05:42:39;;;;;;;17.83;9.77;;;17.10;99.90;;;;;;4971281;28;20042;-77
2021/07/16 05:45:06;;;;;;;15.85;10.65;;;17.20;99.90;;;;;;4963246;28;20137;-78
2021/07/16 05:47:32;;;;;;;15.07;9.77;;;17.10;99.90;;;;;;4971377;28;20034;-77
2021/07/16 05:49:57;;;;;;;16.75;10.15;;;17.30;99.90;;;;;;4970322;28;20482;-78
2021/07/16 05:52:24;;;;;;;17.05;10.32;;;17.50;99.90;;;;;;4953200;28;20571;-78
2021/07/16 05:54:51;;;;;;;17.05;10.48;;;17.60;99.90;;;;;;4954592;28;20373;-78
2021/07/16 05:57:16;;;;;;;19.17;10.52;;;17.80;99.90;;;;;;4936902;29;20039;-78
2021/07/16 05:59:42;;;;;;;15.40;10.23;;;18.00;99.90;;;;;;4955684;29;20437;-79
2021/07/16 06:02:09;;;;;;;20.05;11.57;;;17.90;99.90;;;;;;4963923;28;20035;-82
2021/07/16 06:04:35;;;;;;;18.38;11.43;;;19.00;99.90;;;;;;4967852;29;20027;-80
2021/07/16 06:07:01;;;;;;;14.70;10.23;;;18.20;99.90;;;;;;4964554;28;20028;-79
2021/07/16 06:09:26;;;;;;;15.98;10.98;;;18.30;99.90;;;;;;4944962;28;20051;-81
2021/07/16 06:11:52;;;;;;;14.65;10.48;;;18.10;99.90;;;;;;4977287;28;20027;-79
2021/07/16 06:14:18;;;;;;;18.05;11.38;;;18.60;99.90;;;;;;4944151;28;20123;-79
2021/07/16 06:16:44;;;;;;;20.60;11.88;;;17.90;99.90;;;;;;4957375;28;20023;-78
2021/07/16 06:19:10;;;;;;;28.90;14.50;;;17.90;99.90;;;;;;4958453;28;20031;-78
2021/07/16 06:21:36;;;;;;;49.05;21.20;;;18.10;99.90;;;;;;4959093;28;20102;-78
2021/07/16 06:24:02;;;;;;;44.20;20.92;;;18.20;99.90;;;;;;4973505;28;20057;-78
2021/07/16 06:26:27;;;;;;;29.63;18.13;;;18.30;99.90;;;;;;4956924;28;20061;-78
2021/07/16 06:28:53;;;;;;;22.77;15.95;;;18.30;99.90;;;;;;4971747;28;20030;-78
2021/07/16 06:31:19;;;;;;;27.65;15.48;;;18.70;99.90;;;;;;4969140;28;20106;-78
2021/07/16 06:33:44;;;;;;;22.48;12.80;;;19.70;99.90;;;;;;4953347;29;20662;-78
2021/07/16 06:36:10;;;;;;;20.08;13.00;;;18.90;99.90;;;;;;4954044;29;20032;-79
2021/07/16 06:38:35;;;;;;;20.65;12.20;;;19.00;99.90;;;;;;4952480;29;20047;-78
2021/07/16 06:41:02;;;;;;;16.42;12.02;;;19.00;99.90;;;;;;4950317;28;20039;-78
2021/07/16 06:43:28;;;;;;;15.90;11.38;;;18.80;99.90;;;;;;4951718;28;20423;-78
2021/07/16 06:45:54;;;;;;;16.25;11.65;;;18.90;99.90;;;;;;4957982;28;20066;-78
2021/07/16 06:48:19;;;;;;;14.68;11.73;;;19.00;99.90;;;;;;4952818;28;20492;-78
2021/07/16 06:50:45;;;;;;;20.25;11.82;;;18.60;99.90;;;;;;4970123;28;20035;-78
2021/07/16 06:53:11;;;;;;;17.77;10.80;;;18.90;99.90;;;;;;4971497;28;20027;-78
2021/07/16 06:55:37;;;;;;;11.77;8.93;;;18.90;99.90;;;;;;4970832;28;20022;-78
2021/07/16 06:58:02;;;;;;;12.55;9.38;;;19.10;99.90;;;;;;4972887;28;20382;-78
2021/07/16 07:00:28;;;;;;;11.68;8.63;;;18.90;99.90;;;;;;4971203;28;20062;-78
2021/07/16 07:02:53;;;;;;;13.52;8.48;;;19.50;99.90;;;;;;4971765;28;20042;-78
2021/07/16 07:05:22;;;;;;;9.40;7.55;;;19.80;99.90;;;;;;4952584;28;20023;-79
2021/07/16 07:07:48;;;;;;;12.80;8.00;;;20.70;99.90;;;;;;4968978;28;20041;-78
2021/07/16 07:10:13;;;;;;;9.85;7.40;;;20.20;99.90;;;;;;4951558;28;20402;-78
2021/07/16 07:12:39;;;;;;;10.20;6.22;;;20.20;99.90;;;;;;4951221;29;20039;-78
2021/07/16 07:15:06;;;;;;;7.93;6.20;;;20.10;99.90;;;;;;4960429;28;20023;-78
2021/07/16 07:17:31;;;;;;;7.90;6.07;;;20.00;99.90;;;;;;4970716;28;20070;-78
2021/07/16 07:19:57;;;;;;;7.63;5.40;;;20.00;99.90;;;;;;4965628;28;20070;-78
2021/07/16 07:22:23;;;;;;;7.05;5.75;;;20.20;99.90;;;;;;4950093;28;20046;-78
2021/07/16 07:24:48;;;;;;;8.80;6.10;;;20.30;99.90;;;;;;4950838;29;20027;-78
2021/07/16 07:27:14;;;;;;;7.40;5.45;;;20.40;99.90;;;;;;4949524;28;20464;-78
2021/07/16 07:29:40;;;;;;;8.52;5.82;;;20.80;99.90;;;;;;4950119;29;20059;-78
2021/07/16 07:32:06;;;;;;;8.70;5.45;;;20.90;99.90;;;;;;4957347;28;20039;-78
2021/07/16 07:34:32;;;;;;;6.60;4.55;;;20.80;99.90;;;;;;4952227;28;20034;-78
2021/07/16 07:36:58;;;;;;;5.25;4.13;;;21.00;99.90;;;;;;4969786;28;20027;-78
2021/07/16 07:39:24;;;;;;;7.30;4.80;;;21.20;99.90;;;;;;4968370;28;20033;-78
2021/07/16 07:41:49;;;;;;;6.15;4.60;;;21.10;99.90;;;;;;4969697;28;20034;-78
2021/07/16 07:44:17;;;;;;;7.32;3.92;;;21.20;99.90;;;;;;4968447;28;20320;-78
2021/07/16 07:46:44;;;;;;;6.13;4.13;;;21.40;99.90;;;;;;4969765;28;20396;-78
2021/07/16 07:49:13;;;;;;;8.13;3.50;;;22.00;99.90;;;;;;4968981;28;20035;-78
2021/07/16 07:51:39;;;;;;;9.40;5.57;;;22.40;99.90;;;;;;4951605;28;20091;-78
2021/07/16 07:54:06;;;;;;;6.20;4.55;;;22.70;99.90;;;;;;4952755;28;20034;-77
2021/07/16 07:56:32;;;;;;;5.93;4.35;;;22.30;99.90;;;;;;4965286;28;20067;-77
2021/07/16 07:59:00;;;;;;;5.13;3.78;;;22.70;99.90;;;;;;4953733;28;20222;-78
2021/07/16 08:01:25;;;;;;;9.23;4.18;;;22.70;99.90;;;;;;4940677;28;20031;-79
2021/07/16 08:03:51;;;;;;;9.35;4.65;;;22.50;99.90;;;;;;4958837;28;20035;-78
2021/07/16 08:06:17;;;;;;;10.07;4.45;;;22.40;99.90;;;;;;4960267;28;20027;-80
2021/07/16 08:08:43;;;;;;;4.28;3.67;;;22.50;99.90;;;;;;4968390;28;20396;-81
2021/07/16 08:11:09;;;;;;;5.25;3.80;;;22.30;99.90;;;;;;4967753;28;20066;-80
2021/07/16 08:13:36;;;;;;;8.57;3.92;;;22.10;99.90;;;;;;4952234;28;20031;-79
2021/07/16 08:16:02;;;;;;;4.22;3.22;;;21.90;99.90;;;;;;4986078;28;20351;-79
2021/07/16 08:18:29;;;;;;;6.05;3.47;;;21.80;99.90;;;;;;4973116;28;20535;-80
2021/07/16 08:20:55;;;;;;;7.07;4.18;;;22.10;99.90;;;;;;4992177;28;20042;-79
2021/07/16 08:23:21;;;;;;;4.78;2.95;;;22.30;99.90;;;;;;4992690;28;20053;-80
2021/07/16 08:25:47;;;;;;;4.43;3.33;;;22.20;99.90;;;;;;4993380;28;20022;-80
2021/07/16 08:28:12;;;;;;;4.80;2.30;;;24.00;99.90;;;;;;4988779;28;20031;-80
2021/07/16 08:30:39;;;;;;;3.28;1.92;;;23.20;99.90;;;;;;4976844;28;20031;-81
2021/07/16 08:33:05;;;;;;;5.50;2.95;;;23.40;99.90;;;;;;4962254;28;20035;-79
2021/07/16 08:35:31;;;;;;;3.60;2.80;;;24.10;99.90;;;;;;4971777;28;20472;-83
2021/07/16 08:37:56;;;;;;;4.63;2.85;;;24.30;99.90;;;;;;4946044;28;20028;-81
2021/07/16 08:40:22;;;;;;;5.18;2.63;;;24.70;99.90;;;;;;4969970;28;20038;-83
2021/07/16 08:42:48;;;;;;;7.38;3.00;;;25.10;99.90;;;;;;4971363;28;20058;-80
2021/07/16 08:45:14;;;;;;;4.88;2.55;;;25.30;99.90;;;;;;4974015;28;20155;-82
2021/07/16 08:47:40;;;;;;;3.63;2.97;;;25.50;99.90;;;;;;4971042;28;20452;-81
2021/07/16 08:50:09;;;;;;;3.03;2.38;;;25.70;99.90;;;;;;4978507;28;20030;-80
2021/07/16 08:52:40;;;;;;;4.85;2.85;;;25.90;99.90;;;;;;4973092;28;20054;-82
2021/07/16 08:55:07;;;;;;;3.67;2.65;;;25.70;99.90;;;;;;4970843;28;20026;-81
2021/07/16 08:57:33;;;;;;;8.25;2.67;;;25.60;99.90;;;;;;4961478;29;20023;-82
2021/07/16 08:59:58;;;;;;;5.80;2.50;;;25.70;99.90;;;;;;4980208;28;20122;-78
2021/07/16 09:02:29;;;;;;;5.82;2.92;;;25.90;99.90;;;;;;4982678;28;20063;-81
2021/07/16 09:05:00;;;;;;;4.53;3.33;;;25.80;99.90;;;;;;4965759;28;20027;-83
2021/07/16 09:07:26;;;;;;;5.15;2.33;;;25.50;99.90;;;;;;4960869;28;20027;-79
2021/07/16 09:10:07;;;;;;;5.72;2.80;;;25.40;99.90;;;;;;4975960;28;20141;-82
2021/07/16 09:12:35;;;;;;;4.18;2.20;;;25.50;99.90;;;;;;4978743;28;20141;-83
2021/07/16 09:15:00;;;;;;;3.35;2.60;;;25.70;99.90;;;;;;4974585;28;20055;-84
2021/07/16 09:17:27;;;;;;;4.95;2.63;;;26.00;99.90;;;;;;4995046;28;20027;-81
2021/07/16 09:19:52;;;;;;;3.38;2.60;;;26.30;99.90;;;;;;4961783;28;20050;-78
2021/07/16 09:22:23;;;;;;;5.32;2.95;;;26.30;99.90;;;;;;4956257;28;20051;-84
2021/07/16 09:24:55;;;;;;;9.65;3.03;;;26.10;99.90;;;;;;4990135;28;20042;-82
2021/07/16 09:27:41;;;;;;;3.53;2.58;;;25.90;99.90;;;;;;4981177;28;20023;-81
2021/07/16 09:30:13;;;;;;;4.20;2.53;;;26.20;99.90;;;;;;4978187;28;20039;-83
2021/07/16 09:32:47;;;;;;;14.33;4.77;;;25.90;99.90;;;;;;4978021;28;20034;-81
2021/07/16 09:35:29;;;;;;;6.50;2.50;;;25.90;99.90;;;;;;4958667;28;20110;-79
2021/07/16 09:37:56;;;;;;;;;;;25.90;99.90;;;;;;4952556;28;20150;-80
2021/07/16 09:40:23;;;;;;;4.50;2.47;;;25.90;99.90;;;;;;4960950;28;19910;-83
2021/07/16 09:42:57;;;;;;;7.82;1.95;;;25.90;99.90;;;;;;4960475;28;20023;-82
2021/07/16 09:45:23;;;;;;;6.18;2.47;;;25.40;99.90;;;;;;4979236;28;20030;-82
2021/07/16 09:47:48;;;;;;;4.10;1.75;;;25.50;99.90;;;;;;4993965;28;20065;-82
2021/07/16 09:50:16;;;;;;;2.67;1.60;;;25.50;99.90;;;;;;4960909;28;20035;-81
2021/07/16 09:52:42;;;;;;;3.92;1.42;;;25.70;99.90;;;;;;4985326;28;20033;-81
2021/07/16 09:55:18;;;;;;;2.83;1.63;;;25.90;99.90;;;;;;4964341;28;20424;-83
2021/07/16 09:57:47;;;;;;;4.53;1.83;;;25.60;99.90;;;;;;4974235;28;20023;-83
2021/07/16 10:00:24;;;;;;;7.13;2.60;;;25.90;99.90;;;;;;4962568;28;20508;-82
2021/07/16 10:02:53;;;;;;;4.45;1.95;;;25.80;99.90;;;;;;4983259;28;20031;-82
2021/07/16 10:05:19;;;;;;;2.00;1.40;;;25.90;99.90;;;;;;4984032;28;20078;-82
2021/07/16 10:07:45;;;;;;;2.05;1.48;;;25.90;99.90;;;;;;4972541;28;20061;-81
2021/07/16 10:10:15;;;;;;;5.18;1.52;;;26.00;99.90;;;;;;4979846;28;20492;-82
2021/07/16 10:12:43;;;;;;;4.35;1.48;;;26.20;99.90;;;;;;4988922;28;20033;-81
2021/07/16 10:15:13;;;;;;;2.38;1.30;;;26.40;99.90;;;;;;4970300;28;20087;-82
2021/07/16 10:17:39;;;;;;;1.35;1.05;;;26.40;99.90;;;;;;4961489;28;20035;-82
2021/07/16 10:20:14;;;;;;;1.70;1.10;;;26.50;99.90;;;;;;4964833;28;20481;-83
2021/07/16 10:22:41;;;;;;;2.53;1.60;;;26.60;99.90;;;;;;4979134;28;20492;-83
2021/07/16 10:25:12;;;;;;;3.60;1.30;;;26.40;99.90;;;;;;4991738;28;20034;-82
2021/07/16 10:27:41;;;;;;;6.28;1.55;;;26.30;99.90;;;;;;5000081;28;20113;-83
2021/07/16 10:30:11;;;;;;;4.22;1.58;;;26.20;99.90;;;;;;4961665;28;20126;-80
2021/07/16 10:32:54;;;;;;;3.85;1.30;;;26.20;99.90;;;;;;4956405;28;20027;-81
2021/07/16 10:35:21;;;;;;;;;;;26.50;99.90;;;;;;4980769;28;20023;-81
2021/07/16 10:37:48;;;;;;;1.90;1.10;;;26.70;99.90;;;;;;4980375;28;19921;-82
2021/07/16 10:40:34;;;;;;;1.90;1.10;;;26.80;99.90;;;;;;4978078;28;20027;-81
2021/07/16 10:43:00;;;;;;;3.78;1.33;;;26.90;99.90;;;;;;4978502;28;20035;-82
2021/07/16 10:45:37;;;;;;;2.50;1.30;;;26.80;99.90;;;;;;4943169;29;20036;-81
2021/07/16 10:48:16;;;;;;;1.85;1.40;;;26.80;99.90;;;;;;4944111;28;20033;-82
2021/07/16 10:50:43;;;;;;;2.78;1.48;;;26.60;99.90;;;;;;4962440;28;20110;-81
2021/07/16 10:53:33;;;;;;;1.88;1.10;;;26.80;99.90;;;;;;4976324;28;20031;-79
2021/07/16 10:56:02;;;;;;;4.60;1.58;;;26.80;99.90;;;;;;4979788;28;20037;-80
2021/07/16 10:58:35;;;;;;;1.90;1.10;;;27.00;99.90;;;;;;4976324;28;20034;-79
2021/07/16 11:01:05;;;;;;;2.42;1.27;;;27.40;99.90;;;;;;4963369;28;20030;-80
2021/07/16 11:03:41;;;;;;;1.05;0.95;;;27.40;99.90;;;;;;4981832;28;20031;-82
2021/07/16 11:06:15;;;;;;;2.10;1.02;;;27.90;99.90;;;;;;4980625;28;20090;-80
2021/07/16 11:08:40;;;;;;;2.35;1.20;;;28.70;99.40;;;;;;4979767;28;20030;-80
2021/07/16 11:11:07;;;;;;;0.90;0.88;;;29.60;96.30;;;;;;4979787;28;20223;-79
2021/07/16 11:13:55;;;;;;;2.53;1.05;;;30.50;94.30;;;;;;4959745;29;20031;-79
2021/07/16 11:18:55;;;;;;;2.85;0.93;;;31.50;89.20;;;;;;4960987;29;20174;-77
2021/07/16 11:21:42;;;;;;;4.45;0.90;;;32.00;86.00;;;;;;4965715;28;20031;-78
2021/07/16 11:24:30;;;;;;;1.60;1.10;;;32.60;84.40;;;;;;4973213;28;20085;-77
2021/07/16 11:27:12;;;;;;;3.25;0.70;;;32.60;82.10;;;;;;4978865;28;20117;-79
2021/07/16 11:29:40;;;;;;;3.22;0.93;;;31.90;81.10;;;;;;4979204;28;20062;-80
2021/07/16 11:32:30;;;;;;;1.20;0.85;;;30.70;86.40;;;;;;4954031;28;20042;-79
2021/07/16 11:34:58;;;;;;;2.97;1.00;;;30.90;82.90;;;;;;4962321;28;20059;-79
2021/07/16 11:37:40;;;;;;;2.60;1.00;;;31.30;81.40;;;;;;4962640;29;20035;-79
2021/07/16 11:40:10;;;;;;;6.72;1.42;;;31.40;82.40;;;;;;4961778;29;20384;-80
2021/07/16 11:42:41;;;;;;;3.15;1.30;;;31.00;87.00;;;;;;4955462;28;20396;-80
2021/07/16 11:45:17;;;;;;;4.57;1.60;;;30.90;90.00;;;;;;4955053;28;20040;-77
2021/07/16 11:47:42;;;;;;;4.88;1.88;;;30.20;91.50;;;;;;4955716;29;20541;-80
2021/07/16 11:50:11;;;;;;;4.97;1.70;;;29.40;91.90;;;;;;4954220;29;20397;-79
2021/07/16 11:52:42;;;;;;;4.70;1.92;;;28.20;94.60;;;;;;4959323;28;20024;-79
2021/07/16 11:55:10;;;;;;;2.30;1.70;;;27.30;98.50;;;;;;4970537;28;20019;-80
2021/07/16 11:57:45;;;;;;;2.03;1.50;;;27.00;99.90;;;;;;4969233;28;20551;-80
2021/07/16 12:00:11;;;;;;;3.58;1.85;;;27.80;99.90;;;;;;4955455;28;20043;-77
2021/07/16 12:02:37;;;;;;;3.53;1.50;;;28.80;98.40;;;;;;4953728;28;20046;-78
2021/07/16 12:05:02;;;;;;;5.90;2.00;;;30.20;96.20;;;;;;4941745;28;20027;-78
2021/07/16 12:07:36;;;;;;;8.07;1.80;;;30.20;94.30;;;;;;4969159;28;20055;-78
2021/07/16 12:10:14;;;;;;;1.75;1.20;;;30.20;93.70;;;;;;4945492;29;20039;-78
2021/07/16 12:12:40;;;;;;;4.88;1.40;;;29.90;93.60;;;;;;4949458;28;20034;-78
2021/07/16 12:15:19;;;;;;;3.10;1.58;;;29.30;96.50;;;;;;4972795;28;20575;-78
2021/07/16 12:17:53;;;;;;;4.55;1.70;;;29.10;94.90;;;;;;4954308;28;20031;-78
2021/07/16 12:20:26;;;;;;;2.50;1.30;;;29.00;96.50;;;;;;4969470;28;20039;-78
2021/07/16 12:22:52;;;;;;;6.75;1.50;;;29.10;94.80;;;;;;4953529;28;20082;-80
2021/07/16 12:25:17;;;;;;;4.70;1.83;;;28.90;95.00;;;;;;4972489;28;20131;-80
2021/07/16 12:27:43;;;;;;;4.07;1.63;;;28.80;96.20;;;;;;4965062;28;20510;-77
2021/07/16 12:30:12;;;;;;;3.50;1.88;;;28.90;95.90;;;;;;4951342;28;20788;-79
2021/07/16 12:32:43;;;;;;;5.05;1.83;;;28.20;95.90;;;;;;4967439;28;20027;-79
2021/07/16 12:35:13;;;;;;;2.30;1.60;;;28.20;95.50;;;;;;4939125;28;20027;-80
2021/07/16 12:37:41;;;;;;;7.30;2.17;;;28.60;96.20;;;;;;4969787;28;20027;-78
2021/07/16 12:40:08;;;;;;;5.20;2.10;;;28.90;95.50;;;;;;4976941;28;20031;-79
2021/07/16 12:42:37;;;;;;;4.20;2.05;;;29.70;94.20;;;;;;4961026;28;20070;-79
2021/07/16 12:45:11;;;;;;;8.13;3.67;;;30.40;93.70;;;;;;4975565;28;20019;-79
2021/07/16 12:47:52;;;;;;;3.05;1.70;;;31.20;93.00;;;;;;4973533;28;20035;-80
2021/07/16 12:50:23;;;;;;;2.55;1.30;;;;;;;;;;4976499;28;20034;-79